Caraibes II F/v — FJXR — position and weather

sailwx.info

Track history (hours):
 
Tides and Currents Weather Stations Pressure Air Temp Water Temp Dewpoint Dewpoint Depression Visibility Wind Speed Wind Dir Waves Ship Positions

Caraibes II F/v

Last reported at 2017-Nov-19 23:04 UTC. Time now 2017-Nov-22 11:02 UTC.
Position N 47°50' W 004°10'.

Length 15 m.

Type: Fishing. MMSI: 228087900.

Date/timePositionNaut miles runAvg speedWind from/ knotsBaromVisibWave heightAir tempDewpointWater temp
2017-Nov-19 23:04N 47°50' W 004°10'0 0.0
2017-Nov-19 22:55N 47°50' W 004°10'0 0.0
2017-Nov-19 21:49N 47°50' W 004°10'0 0.0
2017-Nov-19 21:30N 47°50' W 004°10'0 0.0
2017-Nov-18 07:34N 47°50' W 004°10'0 0.0
2017-Nov-18 07:24N 47°50' W 004°10'0 0.0
2017-Nov-18 06:59N 47°50' W 004°10'0 0.0
2017-Nov-18 05:02N 47°50' W 004°10'0 0.1
2017-Nov-18 04:58N 47°50' W 004°10'0 0.0
2017-Nov-18 03:07N 47°50' W 004°10'0 0.0
2017-Nov-18 02:58N 47°50' W 004°10'0 0.0
2017-Nov-17 18:45N 47°50' W 004°10'3 6.7
2017-Nov-17 18:17N 47°47' W 004°09'3 8.7
2017-Nov-17 18:00N 47°45' W 004°10'7 8.0
2017-Nov-17 17:10N 47°38' W 004°11'2 7.7
2017-Nov-17 16:53N 47°36' W 004°12'3 6.4
2017-Nov-17 16:22N 47°33' W 004°12'9 2.5
2017-Nov-17 12:44N 47°24' W 004°09'1 3.4
2017-Nov-17 12:28N 47°23' W 004°08'2 3.2
2017-Nov-17 11:55N 47°22' W 004°08'10 2.7
2017-Nov-17 08:03N 47°15' W 004°20'1 3.1
2017-Nov-17 07:41N 47°15' W 004°21'6 2.6
2017-Nov-17 05:31N 47°15' W 004°13'0 3.8
2017-Nov-17 05:30N 47°15' W 004°13'3 3.7
2017-Nov-17 04:47N 47°17' W 004°11'1 3.7
2017-Nov-17 04:30N 47°18' W 004°10'2 3.8
2017-Nov-17 03:57N 47°20' W 004°09'2 3.3
2017-Nov-17 03:22N 47°22' W 004°11'1 3.4
2017-Nov-17 03:00N 47°21' W 004°12'2 3.2
2017-Nov-17 02:27N 47°21' W 004°15'2 3.4
2017-Nov-17 01:55N 47°19' W 004°16'1 3.5
2017-Nov-17 01:30N 47°18' W 004°17'1 2.2
2017-Nov-17 00:52N 47°16' W 004°17'1 3.4
2017-Nov-17 00:29N 47°17' W 004°15'3 3.4
2017-Nov-16 23:43N 47°19' W 004°12'1 3.3
2017-Nov-16 23:19N 47°20' W 004°11'1 3.3
2017-Nov-16 22:57N 47°21' W 004°10'2 3.3
2017-Nov-16 22:30N 47°22' W 004°10'2 3.1
2017-Nov-16 21:45N 47°24' W 004°13'1 3.4
2017-Nov-16 21:27N 47°24' W 004°14'2 3.3
2017-Nov-16 20:54N 47°25' W 004°17'10 3.0
2017-Nov-16 17:33N 47°28' W 004°31'0 3.8
2017-Nov-16 17:29N 47°28' W 004°31'2 3.4
2017-Nov-16 16:59N 47°29' W 004°33'1 2.7
2017-Nov-16 16:30N 47°28' W 004°35'1 2.9
2017-Nov-16 16:00N 47°27' W 004°35'2 3.0
2017-Nov-16 15:27N 47°25' W 004°36'2 3.3
2017-Nov-16 14:59N 47°24' W 004°36'2 3.3
2017-Nov-16 14:30N 47°22' W 004°37'1 1.2
2017-Nov-16 14:00N 47°22' W 004°38'2 3.3
2017-Nov-16 13:29N 47°23' W 004°38'2 3.2
2017-Nov-16 12:58N 47°25' W 004°37'2 3.3
2017-Nov-16 12:30N 47°27' W 004°36'4 3.0
2017-Nov-16 11:19N 47°27' W 004°41'1 3.7
2017-Nov-16 10:55N 47°26' W 004°43'3 3.7
2017-Nov-16 10:07N 47°23' W 004°46'1 3.8
2017-Nov-16 09:54N 47°23' W 004°46'2 2.2
2017-Nov-16 09:05N 47°21' W 004°48'4 3.1
2017-Nov-16 07:53N 47°20' W 004°53'1 3.2
2017-Nov-16 07:29N 47°19' W 004°54'4 3.2
2017-Nov-16 06:06N 47°15' W 004°50'1 3.7
2017-Nov-16 05:51N 47°15' W 004°49'2 3.6
2017-Nov-16 05:14N 47°14' W 004°46'1 3.9
2017-Nov-16 05:00N 47°13' W 004°45'4 7.3
2017-Nov-16 04:26N 47°10' W 004°41'4 8.8
2017-Nov-16 03:56N 47°07' W 004°36'2 3.8
2017-Nov-16 03:26N 47°06' W 004°34'1 2.3
2017-Nov-16 02:58N 47°06' W 004°32'3 3.2
2017-Nov-16 02:01N 47°07' W 004°28'1 3.1
2017-Nov-16 01:40N 47°07' W 004°26'1 3.3
2017-Nov-16 01:29N 47°08' W 004°26'3 3.2
2017-Nov-16 00:36N 47°10' W 004°24'1 3.2
2017-Nov-16 00:24N 47°10' W 004°23'5 3.3
2017-Nov-15 22:55N 47°14' W 004°19'4 2.9
2017-Nov-15 21:35N 47°13' W 004°24'0 3.3
2017-Nov-15 21:29N 47°13' W 004°25'1 2.7
2017-Nov-15 21:00N 47°14' W 004°26'2 3.0
2017-Nov-15 20:12N 47°17' W 004°27'1 3.1
2017-Nov-15 19:52N 47°18' W 004°26'1 3.4
2017-Nov-15 19:30N 47°19' W 004°25'2 3.5
2017-Nov-15 18:55N 47°20' W 004°23'2 3.5
2017-Nov-15 18:26N 47°22' W 004°23'4 6.3
2017-Nov-15 17:44N 47°26' W 004°22'4 8.8
2017-Nov-15 17:19N 47°30' W 004°21'5 8.9
2017-Nov-15 16:44N 47°35' W 004°19'2 8.7
2017-Nov-15 16:28N 47°37' W 004°19'4 8.8
2017-Nov-15 16:00N 47°41' W 004°18'5 8.6
2017-Nov-15 15:28N 47°46' W 004°17'1 0.3
2017-Nov-15 12:05N 47°47' W 004°18'2 7.4
2017-Nov-15 11:47N 47°45' W 004°17'2 7.5
2017-Nov-15 11:28N 47°42' W 004°17'5 6.8
2017-Nov-15 10:41N 47°37' W 004°15'1 4.2
2017-Nov-15 10:26N 47°36' W 004°15'2 3.1
2017-Nov-15 09:55N 47°35' W 004°15'2 3.7
2017-Nov-15 09:20N 47°33' W 004°16'2 3.8
2017-Nov-15 08:50N 47°31' W 004°17'2 3.1
2017-Nov-15 08:11N 47°29' W 004°16'1 3.5
2017-Nov-15 07:59N 47°29' W 004°15'2 3.5
2017-Nov-15 07:23N 47°28' W 004°12'2 3.3
2017-Nov-15 06:41N 47°26' W 004°10'4 3.0
2017-Nov-15 05:26N 47°24' W 004°14'1 3.2
2017-Nov-15 05:00N 47°24' W 004°16'1 3.0
2017-Nov-15 04:30N 47°23' W 004°18'2 3.5
2017-Nov-15 03:57N 47°21' W 004°19'1 1.4
2017-Nov-15 03:21N 47°21' W 004°20'1 3.5
2017-Nov-15 03:00N 47°22' W 004°21'6 2.9
2017-Nov-15 00:48N 47°24' W 004°12'26 0.6
2017-Nov-13 01:58N 47°50' W 004°10'0 0.0
2017-Nov-12 21:58N 47°50' W 004°10'0 0.0
2017-Nov-12 20:58N 47°50' W 004°10'0 0.0
2017-Nov-12 13:59N 47°50' W 004°10'0 0.0
2017-Nov-12 12:58N 47°50' W 004°10'0 0.0
2017-Nov-12 09:58N 47°50' W 004°10'0 0.0
2017-Nov-12 00:58N 47°50' W 004°10'0 0.0
2017-Nov-11 23:58N 47°50' W 004°10'0 0.0
2017-Nov-11 21:58N 47°50' W 004°10'0 0.0
2017-Nov-11 10:58N 47°50' W 004°10'0 0.0
2017-Nov-11 09:58N 47°50' W 004°10'0 0.0
2017-Nov-10 21:58N 47°50' W 004°10'0 0.0
2017-Nov-10 20:58N 47°50' W 004°10'0 0.1
2017-Nov-10 20:19N 47°50' W 004°10'0 0.0
2017-Nov-10 20:00N 47°50' W 004°10'0 0.3
2017-Nov-10 19:25N 47°50' W 004°10'3 6.9
2017-Nov-10 19:00N 47°47' W 004°09'5 8.8
2017-Nov-10 18:28N 47°43' W 004°10'  
Track history (hours):
 
Tides and Currents Weather Stations Pressure Air Temp Water Temp Dewpoint Dewpoint Depression Visibility Wind Speed Wind Dir Waves Ship Positions

Caraibes II F/v

Last reported at 2017-Nov-19 23:04 UTC. Time now 2017-Nov-22 11:02 UTC.
Position N 47°50' W 004°10'.

Length 15 m.

Type: Fishing. MMSI: 228087900.

Date/timePositionNaut miles runAvg speedWind from/ knotsBaromVisibWave heightAir tempDewpointWater temp
2017-Nov-19 23:04N 47°50' W 004°10'0 0.0
2017-Nov-19 22:55N 47°50' W 004°10'0 0.0
2017-Nov-19 21:49N 47°50' W 004°10'0 0.0
2017-Nov-19 21:30N 47°50' W 004°10'0 0.0
2017-Nov-18 07:34N 47°50' W 004°10'0 0.0
2017-Nov-18 07:24N 47°50' W 004°10'0 0.0
2017-Nov-18 06:59N 47°50' W 004°10'0 0.0
2017-Nov-18 05:02N 47°50' W 004°10'0 0.1
2017-Nov-18 04:58N 47°50' W 004°10'0 0.0
2017-Nov-18 03:07N 47°50' W 004°10'0 0.0
2017-Nov-18 02:58N 47°50' W 004°10'0 0.0
2017-Nov-17 18:45N 47°50' W 004°10'3 6.7
2017-Nov-17 18:17N 47°47' W 004°09'3 8.7
2017-Nov-17 18:00N 47°45' W 004°10'7 8.0
2017-Nov-17 17:10N 47°38' W 004°11'2 7.7
2017-Nov-17 16:53N 47°36' W 004°12'3 6.4
2017-Nov-17 16:22N 47°33' W 004°12'9 2.5
2017-Nov-17 12:44N 47°24' W 004°09'1 3.4
2017-Nov-17 12:28N 47°23' W 004°08'2 3.2
2017-Nov-17 11:55N 47°22' W 004°08'10 2.7
2017-Nov-17 08:03N 47°15' W 004°20'1 3.1
2017-Nov-17 07:41N 47°15' W 004°21'6 2.6
2017-Nov-17 05:31N 47°15' W 004°13'0 3.8
2017-Nov-17 05:30N 47°15' W 004°13'3 3.7
2017-Nov-17 04:47N 47°17' W 004°11'1 3.7
2017-Nov-17 04:30N 47°18' W 004°10'2 3.8
2017-Nov-17 03:57N 47°20' W 004°09'2 3.3
2017-Nov-17 03:22N 47°22' W 004°11'1 3.4
2017-Nov-17 03:00N 47°21' W 004°12'2 3.2
2017-Nov-17 02:27N 47°21' W 004°15'2 3.4
2017-Nov-17 01:55N 47°19' W 004°16'1 3.5
2017-Nov-17 01:30N 47°18' W 004°17'1 2.2
2017-Nov-17 00:52N 47°16' W 004°17'1 3.4
2017-Nov-17 00:29N 47°17' W 004°15'3 3.4
2017-Nov-16 23:43N 47°19' W 004°12'1 3.3
2017-Nov-16 23:19N 47°20' W 004°11'1 3.3
2017-Nov-16 22:57N 47°21' W 004°10'2 3.3
2017-Nov-16 22:30N 47°22' W 004°10'2 3.1
2017-Nov-16 21:45N 47°24' W 004°13'1 3.4
2017-Nov-16 21:27N 47°24' W 004°14'2 3.3
2017-Nov-16 20:54N 47°25' W 004°17'10 3.0
2017-Nov-16 17:33N 47°28' W 004°31'0 3.8
2017-Nov-16 17:29N 47°28' W 004°31'2 3.4
2017-Nov-16 16:59N 47°29' W 004°33'1 2.7
2017-Nov-16 16:30N 47°28' W 004°35'1 2.9
2017-Nov-16 16:00N 47°27' W 004°35'2 3.0
2017-Nov-16 15:27N 47°25' W 004°36'2 3.3
2017-Nov-16 14:59N 47°24' W 004°36'2 3.3
2017-Nov-16 14:30N 47°22' W 004°37'1 1.2
2017-Nov-16 14:00N 47°22' W 004°38'2 3.3
2017-Nov-16 13:29N 47°23' W 004°38'2 3.2
2017-Nov-16 12:58N 47°25' W 004°37'2 3.3
2017-Nov-16 12:30N 47°27' W 004°36'4 3.0
2017-Nov-16 11:19N 47°27' W 004°41'1 3.7
2017-Nov-16 10:55N 47°26' W 004°43'3 3.7
2017-Nov-16 10:07N 47°23' W 004°46'1 3.8
2017-Nov-16 09:54N 47°23' W 004°46'2 2.2
2017-Nov-16 09:05N 47°21' W 004°48'4 3.1
2017-Nov-16 07:53N 47°20' W 004°53'1 3.2
2017-Nov-16 07:29N 47°19' W 004°54'4 3.2
2017-Nov-16 06:06N 47°15' W 004°50'1 3.7
2017-Nov-16 05:51N 47°15' W 004°49'2 3.6
2017-Nov-16 05:14N 47°14' W 004°46'1 3.9
2017-Nov-16 05:00N 47°13' W 004°45'4 7.3
2017-Nov-16 04:26N 47°10' W 004°41'4 8.8
2017-Nov-16 03:56N 47°07' W 004°36'2 3.8
2017-Nov-16 03:26N 47°06' W 004°34'1 2.3
2017-Nov-16 02:58N 47°06' W 004°32'3 3.2
2017-Nov-16 02:01N 47°07' W 004°28'1 3.1
2017-Nov-16 01:40N 47°07' W 004°26'1 3.3
2017-Nov-16 01:29N 47°08' W 004°26'3 3.2
2017-Nov-16 00:36N 47°10' W 004°24'1 3.2
2017-Nov-16 00:24N 47°10' W 004°23'5 3.3
2017-Nov-15 22:55N 47°14' W 004°19'4 2.9
2017-Nov-15 21:35N 47°13' W 004°24'0 3.3
2017-Nov-15 21:29N 47°13' W 004°25'1 2.7
2017-Nov-15 21:00N 47°14' W 004°26'2 3.0
2017-Nov-15 20:12N 47°17' W 004°27'1 3.1
2017-Nov-15 19:52N 47°18' W 004°26'1 3.4
2017-Nov-15 19:30N 47°19' W 004°25'2 3.5
2017-Nov-15 18:55N 47°20' W 004°23'2 3.5
2017-Nov-15 18:26N 47°22' W 004°23'4 6.3
2017-Nov-15 17:44N 47°26' W 004°22'4 8.8
2017-Nov-15 17:19N 47°30' W 004°21'5 8.9
2017-Nov-15 16:44N 47°35' W 004°19'2 8.7
2017-Nov-15 16:28N 47°37' W 004°19'4 8.8
2017-Nov-15 16:00N 47°41' W 004°18'5 8.6
2017-Nov-15 15:28N 47°46' W 004°17'1 0.3
2017-Nov-15 12:05N 47°47' W 004°18'2 7.4
2017-Nov-15 11:47N 47°45' W 004°17'2 7.5
2017-Nov-15 11:28N 47°42' W 004°17'5 6.8
2017-Nov-15 10:41N 47°37' W 004°15'1 4.2
2017-Nov-15 10:26N 47°36' W 004°15'2 3.1
2017-Nov-15 09:55N 47°35' W 004°15'2 3.7
2017-Nov-15 09:20N 47°33' W 004°16'2 3.8
2017-Nov-15 08:50N 47°31' W 004°17'2 3.1
2017-Nov-15 08:11N 47°29' W 004°16'1 3.5
2017-Nov-15 07:59N 47°29' W 004°15'2 3.5
2017-Nov-15 07:23N 47°28' W 004°12'2 3.3
2017-Nov-15 06:41N 47°26' W 004°10'4 3.0
2017-Nov-15 05:26N 47°24' W 004°14'1 3.2
2017-Nov-15 05:00N 47°24' W 004°16'1 3.0
2017-Nov-15 04:30N 47°23' W 004°18'2 3.5
2017-Nov-15 03:57N 47°21' W 004°19'1 1.4
2017-Nov-15 03:21N 47°21' W 004°20'1 3.5
2017-Nov-15 03:00N 47°22' W 004°21'6 2.9
2017-Nov-15 00:48N 47°24' W 004°12'26 0.6
2017-Nov-13 01:58N 47°50' W 004°10'0 0.0
2017-Nov-12 21:58N 47°50' W 004°10'0 0.0
2017-Nov-12 20:58N 47°50' W 004°10'0 0.0
2017-Nov-12 13:59N 47°50' W 004°10'0 0.0
2017-Nov-12 12:58N 47°50' W 004°10'0 0.0
2017-Nov-12 09:58N 47°50' W 004°10'0 0.0
2017-Nov-12 00:58N 47°50' W 004°10'0 0.0
2017-Nov-11 23:58N 47°50' W 004°10'0 0.0
2017-Nov-11 21:58N 47°50' W 004°10'0 0.0
2017-Nov-11 10:58N 47°50' W 004°10'0 0.0
2017-Nov-11 09:58N 47°50' W 004°10'0 0.0
2017-Nov-10 21:58N 47°50' W 004°10'0 0.0
2017-Nov-10 20:58N 47°50' W 004°10'0 0.1
2017-Nov-10 20:19N 47°50' W 004°10'0 0.0
2017-Nov-10 20:00N 47°50' W 004°10'0 0.3
2017-Nov-10 19:25N 47°50' W 004°10'3 6.9
2017-Nov-10 19:00N 47°47' W 004°09'5 8.8
2017-Nov-10 18:28N 47°43' W 004°10'  

Dump ship's entire track history